createdAt,value
2017-04-13T00:00:34.614Z,1004.93
2017-04-13T00:01:34.598Z,1004.95
2017-04-13T00:02:34.579Z,1005
2017-04-13T00:03:34.563Z,1005.01
2017-04-13T00:04:34.536Z,1005.01
2017-04-13T00:05:34.514Z,1005.05
2017-04-13T00:06:34.506Z,1005.04
2017-04-13T00:07:34.482Z,1004.98
2017-04-13T00:08:34.461Z,1004.99
2017-04-13T00:09:34.437Z,1004.96
2017-04-13T00:10:34.417Z,1004.98
2017-04-13T00:11:34.394Z,1004.91
2017-04-13T00:12:34.382Z,1004.93
2017-04-13T00:13:34.356Z,1004.96
2017-04-13T00:14:34.342Z,1004.96
2017-04-13T00:15:34.322Z,1004.89
2017-04-13T00:16:34.294Z,1004.91
2017-04-13T00:17:34.273Z,1004.86
2017-04-13T00:18:34.254Z,1004.85
2017-04-13T00:19:34.231Z,1004.89
2017-04-13T00:20:34.212Z,1004.94
2017-04-13T00:21:34.192Z,1004.89
2017-04-13T00:22:34.172Z,1004.89
2017-04-13T00:23:34.151Z,1004.92
2017-04-13T00:24:34.132Z,1004.93
2017-04-13T00:25:34.113Z,1004.93
2017-04-13T00:26:34.092Z,1004.93
2017-04-13T00:27:34.072Z,1004.93
2017-04-13T00:28:34.052Z,1004.97
2017-04-13T00:29:34.032Z,1004.97
2017-04-13T00:30:34.012Z,1004.97
2017-04-13T00:31:34.002Z,1004.95
2017-04-13T00:32:33.975Z,1004.9
2017-04-13T00:33:33.952Z,1004.93
2017-04-13T00:34:33.933Z,1004.91
2017-04-13T00:35:33.913Z,1004.9
2017-04-13T00:36:33.892Z,1004.9
2017-04-13T00:37:33.871Z,1004.89
2017-04-13T00:38:33.864Z,1004.9
2017-04-13T00:39:33.832Z,1004.88
2017-04-13T00:40:33.812Z,1004.86
2017-04-13T00:41:33.793Z,1004.84
2017-04-13T00:42:33.773Z,1004.83
2017-04-13T00:43:33.754Z,1004.82
2017-04-13T00:44:33.734Z,1004.81
2017-04-13T00:45:33.713Z,1004.77
2017-04-13T00:46:33.692Z,1004.77
2017-04-13T00:47:33.671Z,1004.78
2017-04-13T00:48:33.654Z,1004.78
2017-04-13T00:49:33.633Z,1004.78
2017-04-13T00:50:33.611Z,1004.78
2017-04-13T00:51:33.592Z,1004.79
2017-04-13T00:52:33.573Z,1004.78
2017-04-13T00:53:33.551Z,1004.79
2017-04-13T00:54:33.534Z,1004.77
2017-04-13T00:55:33.512Z,1004.82
2017-04-13T00:56:33.493Z,1004.81
2017-04-13T00:57:33.471Z,1004.81
2017-04-13T00:58:33.451Z,1004.83
2017-04-13T00:59:33.431Z,1004.79
2017-04-13T01:00:33.412Z,1004.8
2017-04-13T01:01:33.392Z,1004.8
2017-04-13T01:02:33.372Z,1004.82
2017-04-13T01:03:33.351Z,1004.81
2017-04-13T01:04:33.335Z,1004.78
2017-04-13T01:05:33.311Z,1004.79
2017-04-13T01:06:33.292Z,1004.75
2017-04-13T01:07:33.273Z,1004.75
2017-04-13T01:08:33.252Z,1004.72
2017-04-13T01:09:33.239Z,1004.71
2017-04-13T01:10:33.210Z,1004.7
2017-04-13T01:11:33.193Z,1004.71
2017-04-13T01:12:33.174Z,1004.67
2017-04-13T01:13:33.152Z,1004.66
2017-04-13T01:14:33.131Z,1004.64
2017-04-13T01:15:33.113Z,1004.6
2017-04-13T01:16:33.093Z,1004.67
2017-04-13T01:17:33.073Z,1004.69
2017-04-13T01:18:33.052Z,1004.68
2017-04-13T01:19:33.031Z,1004.69
2017-04-13T01:20:33.014Z,1004.64
2017-04-13T01:21:32.995Z,1004.65
2017-04-13T01:22:32.973Z,1004.68
2017-04-13T01:23:32.962Z,1004.66
2017-04-13T01:24:32.930Z,1004.66
2017-04-13T01:25:32.922Z,1004.67
2017-04-13T01:26:32.893Z,1004.68
2017-04-13T01:27:32.871Z,1004.66
2017-04-13T01:28:32.848Z,1004.62
2017-04-13T01:29:32.833Z,1004.65
2017-04-13T01:30:32.808Z,1004.66
2017-04-13T01:31:32.842Z,1004.65
2017-04-13T01:32:32.773Z,1004.68
2017-04-13T01:33:32.751Z,1004.69
2017-04-13T01:34:32.727Z,1004.71
2017-04-13T01:35:32.712Z,1004.73
2017-04-13T01:36:32.693Z,1004.72
2017-04-13T01:37:32.672Z,1004.78
2017-04-13T01:38:32.652Z,1004.73
2017-04-13T01:39:32.626Z,1004.76
2017-04-13T01:40:32.608Z,1004.76
2017-04-13T01:41:32.643Z,1004.73
2017-04-13T01:42:32.565Z,1004.72
2017-04-13T01:43:32.552Z,1004.71
2017-04-13T01:44:32.533Z,1004.75
2017-04-13T01:45:32.513Z,1004.72
2017-04-13T01:46:32.492Z,1004.72
2017-04-13T01:47:32.522Z,1004.74
2017-04-13T01:48:32.446Z,1004.75
2017-04-13T01:49:32.482Z,1004.75
2017-04-13T01:50:32.406Z,1004.7
2017-04-13T01:51:32.384Z,1004.76
2017-04-13T01:52:32.367Z,1004.75
2017-04-13T01:53:32.398Z,1004.75
2017-04-13T01:54:32.329Z,1004.73
2017-04-13T01:55:32.307Z,1004.78
2017-04-13T01:56:32.282Z,1004.8
2017-04-13T01:57:32.262Z,1004.82
2017-04-13T01:58:32.243Z,1004.75
2017-04-13T01:59:32.222Z,1004.81
2017-04-13T02:00:32.203Z,1004.74
2017-04-13T02:01:32.182Z,1004.74
2017-04-13T02:02:32.174Z,1004.76
2017-04-13T02:03:32.144Z,1004.73
2017-04-13T02:04:32.124Z,1004.78
2017-04-13T02:05:32.101Z,1004.76
2017-04-13T02:06:32.085Z,1004.8
2017-04-13T02:07:32.062Z,1004.81
2017-04-13T02:08:32.043Z,1004.82
2017-04-13T02:09:32.023Z,1004.8
2017-04-13T02:10:32.003Z,1004.79
2017-04-13T02:11:31.981Z,1004.81
2017-04-13T02:12:31.960Z,1004.79
2017-04-13T02:13:31.946Z,1004.82
2017-04-13T02:14:31.924Z,1004.83
2017-04-13T02:15:31.903Z,1004.83
2017-04-13T02:16:31.882Z,1004.82
2017-04-13T02:17:31.861Z,1004.82
2017-04-13T02:18:31.844Z,1004.8
2017-04-13T02:19:31.823Z,1004.8
2017-04-13T02:20:31.800Z,1004.78
2017-04-13T02:21:31.781Z,1004.82
2017-04-13T02:22:31.757Z,1004.8
2017-04-13T02:23:31.735Z,1004.86
2017-04-13T02:24:31.716Z,1004.82
2017-04-13T02:25:31.698Z,1004.81
2017-04-13T02:26:31.684Z,1004.86
2017-04-13T02:27:31.662Z,1004.86
2017-04-13T02:28:31.641Z,1004.91
2017-04-13T02:29:31.617Z,1004.91
2017-04-13T02:30:31.598Z,1004.9
2017-04-13T02:31:31.579Z,1004.85
2017-04-13T02:32:31.561Z,1004.89
2017-04-13T02:33:31.539Z,1004.85
2017-04-13T02:34:31.516Z,1004.89
2017-04-13T02:35:31.497Z,1004.87
2017-04-13T02:36:31.485Z,1004.91
2017-04-13T02:37:31.459Z,1004.92
2017-04-13T02:38:31.434Z,1004.92
2017-04-13T02:39:31.421Z,1004.87
2017-04-13T02:40:31.395Z,1004.88
2017-04-13T02:41:31.386Z,1004.89
2017-04-13T02:42:31.356Z,1004.84
2017-04-13T02:43:31.335Z,1004.87
2017-04-13T02:44:31.315Z,1004.86
2017-04-13T02:45:31.294Z,1004.83
2017-04-13T02:46:31.278Z,1004.82
2017-04-13T02:47:31.255Z,1004.84
2017-04-13T02:48:31.231Z,1004.78
2017-04-13T02:49:31.231Z,1004.75
2017-04-13T02:50:31.191Z,1004.76
2017-04-13T02:51:31.223Z,1004.8
2017-04-13T02:52:31.155Z,1004.78
2017-04-13T02:53:31.235Z,1004.75
2017-04-13T02:54:31.114Z,1004.75
2017-04-13T02:55:31.094Z,1004.75
2017-04-13T02:56:31.067Z,1004.77
2017-04-13T02:57:31.099Z,1004.76
2017-04-13T02:58:31.029Z,1004.75
2017-04-13T02:59:31.009Z,1004.7
2017-04-13T03:00:30.993Z,1004.73
2017-04-13T03:01:30.975Z,1004.74
2017-04-13T03:02:30.947Z,1004.77
2017-04-13T03:03:30.929Z,1004.77
2017-04-13T03:04:30.907Z,1004.75
2017-04-13T03:05:30.965Z,1004.79
2017-04-13T03:06:30.865Z,1004.8
2017-04-13T03:07:30.849Z,1004.83
2017-04-13T03:08:30.829Z,1004.81
2017-04-13T03:09:30.808Z,1004.8
2017-04-13T03:10:30.783Z,1004.84
2017-04-13T03:11:30.764Z,1004.8
2017-04-13T03:12:30.745Z,1004.78
2017-04-13T03:13:30.726Z,1004.78
2017-04-13T03:14:30.704Z,1004.79
2017-04-13T03:15:30.687Z,1004.73
2017-04-13T03:16:30.663Z,1004.72
2017-04-13T03:17:30.645Z,1004.75
2017-04-13T03:18:30.671Z,1004.77
2017-04-13T03:19:30.604Z,1004.73
2017-04-13T03:20:30.583Z,1004.74
2017-04-13T03:21:30.564Z,1004.77
2017-04-13T03:22:30.544Z,1004.76
2017-04-13T03:23:30.524Z,1004.79
2017-04-13T03:24:30.502Z,1004.78
2017-04-13T03:25:30.483Z,1004.78
2017-04-13T03:26:30.465Z,1004.75
2017-04-13T03:27:30.456Z,1004.79
2017-04-13T03:28:30.418Z,1004.82
2017-04-13T03:29:30.404Z,1004.87
2017-04-13T03:30:30.379Z,1004.84
2017-04-13T03:31:30.409Z,1004.85
2017-04-13T03:32:30.336Z,1004.84
2017-04-13T03:33:30.401Z,1004.84
2017-04-13T03:34:30.298Z,1004.85
2017-04-13T03:35:30.284Z,1004.83
2017-04-13T03:36:30.265Z,1004.81
2017-04-13T03:37:30.238Z,1004.82
2017-04-13T03:38:30.239Z,1004.79
2017-04-13T03:39:30.196Z,1004.81
2017-04-13T03:40:30.175Z,1004.8
2017-04-13T03:41:30.154Z,1004.74
2017-04-13T03:42:30.130Z,1004.74
2017-04-13T03:43:30.114Z,1004.77
2017-04-13T03:44:30.093Z,1004.74
2017-04-13T03:45:30.073Z,1004.74
2017-04-13T03:46:30.052Z,1004.75
2017-04-13T03:47:30.036Z,1004.75
2017-04-13T03:48:30.013Z,1004.77
2017-04-13T03:49:29.989Z,1004.75
2017-04-13T03:50:29.973Z,1004.71
2017-04-13T03:51:29.949Z,1004.73
2017-04-13T03:52:29.931Z,1004.75
2017-04-13T03:53:29.910Z,1004.74
2017-04-13T03:54:29.894Z,1004.73
2017-04-13T03:55:29.873Z,1004.75
2017-04-13T03:56:29.853Z,1004.71
2017-04-13T03:57:29.827Z,1004.7
2017-04-13T03:58:29.812Z,1004.71
2017-04-13T03:59:29.787Z,1004.69
2017-04-13T04:00:29.773Z,1004.72
2017-04-13T04:01:29.755Z,1004.7
2017-04-13T04:02:29.727Z,1004.71
2017-04-13T04:03:29.710Z,1004.66
2017-04-13T04:04:29.693Z,1004.72
2017-04-13T04:05:29.662Z,1004.7
2017-04-13T04:06:29.644Z,1004.72
2017-04-13T04:07:29.625Z,1004.72
2017-04-13T04:08:29.603Z,1004.67
2017-04-13T04:09:29.583Z,1004.68
2017-04-13T04:10:29.561Z,1004.7
2017-04-13T04:11:29.546Z,1004.74
2017-04-13T04:12:29.522Z,1004.72
2017-04-13T04:13:29.504Z,1004.74
2017-04-13T04:14:29.482Z,1004.7
2017-04-13T04:15:29.462Z,1004.7
2017-04-13T04:16:29.445Z,1004.68
2017-04-13T04:17:29.425Z,1004.69
2017-04-13T04:18:29.398Z,1004.7
2017-04-13T04:19:29.376Z,1004.69
2017-04-13T04:20:29.357Z,1004.74
2017-04-13T04:21:29.345Z,1004.76
2017-04-13T04:22:29.325Z,1004.71
2017-04-13T04:23:29.297Z,1004.73
2017-04-13T04:24:29.285Z,1004.73
2017-04-13T04:25:29.251Z,1004.78
2017-04-13T04:26:29.236Z,1004.74
2017-04-13T04:27:29.223Z,1004.79
2017-04-13T04:28:29.194Z,1004.78
2017-04-13T04:29:29.173Z,1004.78
2017-04-13T04:30:29.155Z,1004.78
2017-04-13T04:31:29.137Z,1004.77
2017-04-13T04:32:29.115Z,1004.78
2017-04-13T04:33:29.093Z,1004.79
2017-04-13T04:34:29.074Z,1004.83
2017-04-13T04:35:29.054Z,1004.78
2017-04-13T04:36:29.031Z,1004.8
2017-04-13T04:37:29.014Z,1004.79
2017-04-13T04:38:28.994Z,1004.81
2017-04-13T04:39:28.976Z,1004.81
2017-04-13T04:40:28.950Z,1004.82
2017-04-13T04:41:28.933Z,1004.84
2017-04-13T04:42:28.911Z,1004.84
2017-04-13T04:43:28.889Z,1004.82
2017-04-13T04:44:28.873Z,1004.82
2017-04-13T04:45:28.851Z,1004.84
2017-04-13T04:46:28.833Z,1004.82
2017-04-13T04:47:28.812Z,1004.81
2017-04-13T04:48:28.792Z,1004.82
2017-04-13T04:49:28.774Z,1004.85
2017-04-13T04:50:28.744Z,1004.84
2017-04-13T04:51:28.725Z,1004.83
2017-04-13T04:52:28.702Z,1004.89
2017-04-13T04:53:28.689Z,1004.86
2017-04-13T04:54:28.665Z,1004.88
2017-04-13T04:55:28.643Z,1004.92
2017-04-13T04:56:28.623Z,1004.92
2017-04-13T04:57:28.602Z,1004.93
2017-04-13T04:58:28.583Z,1004.92
2017-04-13T04:59:28.563Z,1004.96
2017-04-13T05:00:28.544Z,1004.99
2017-04-13T05:01:28.525Z,1004.99
2017-04-13T05:02:28.504Z,1005
2017-04-13T05:03:28.478Z,1005
2017-04-13T05:04:28.460Z,1005.04
2017-04-13T05:05:28.444Z,1005.06
2017-04-13T05:06:28.420Z,1005.09
2017-04-13T05:07:28.400Z,1005.05
2017-04-13T05:08:28.381Z,1005.11
2017-04-13T05:09:28.363Z,1005.12
2017-04-13T05:10:28.348Z,1005.14
2017-04-13T05:11:28.320Z,1005.16
2017-04-13T05:12:28.297Z,1005.14
2017-04-13T05:13:28.285Z,1005.15
2017-04-13T05:14:28.254Z,1005.11
2017-04-13T05:15:28.244Z,1005.1
2017-04-13T05:16:28.214Z,1005.12
2017-04-13T05:17:28.192Z,1005.09
2017-04-13T05:18:28.171Z,1005.17
2017-04-13T05:19:28.155Z,1005.13
2017-04-13T05:20:28.135Z,1005.14
2017-04-13T05:21:28.112Z,1005.14
2017-04-13T05:22:28.094Z,1005.1
2017-04-13T05:23:28.072Z,1005.11
2017-04-13T05:24:28.053Z,1005.16
2017-04-13T05:25:28.033Z,1005.1
2017-04-13T05:26:28.008Z,1005.11
2017-04-13T05:27:27.992Z,1005.17
2017-04-13T05:28:27.970Z,1005.16
2017-04-13T05:29:27.954Z,1005.18
2017-04-13T05:30:27.933Z,1005.25
2017-04-13T05:31:27.909Z,1005.23
2017-04-13T05:32:27.885Z,1005.23
2017-04-13T05:33:27.867Z,1005.27
2017-04-13T05:34:27.853Z,1005.26
2017-04-13T05:35:27.835Z,1005.3
2017-04-13T05:36:27.813Z,1005.3
2017-04-13T05:37:27.786Z,1005.29
2017-04-13T05:38:27.771Z,1005.26
2017-04-13T05:39:27.750Z,1005.29
2017-04-13T05:40:27.724Z,1005.31
2017-04-13T05:41:27.719Z,1005.27
2017-04-13T05:42:27.686Z,1005.33
2017-04-13T05:43:27.666Z,1005.29
2017-04-13T05:44:27.693Z,1005.29
2017-04-13T05:45:27.621Z,1005.29
2017-04-13T05:46:27.604Z,1005.26
2017-04-13T05:47:27.583Z,1005.32
2017-04-13T05:48:27.575Z,1005.31
2017-04-13T05:49:27.544Z,1005.3
2017-04-13T05:50:27.522Z,1005.36
2017-04-13T05:51:27.502Z,1005.38
2017-04-13T05:52:27.482Z,1005.35
2017-04-13T05:53:27.467Z,1005.37
2017-04-13T05:54:27.444Z,1005.41
2017-04-13T05:55:27.423Z,1005.35
2017-04-13T05:56:27.405Z,1005.43
2017-04-13T05:57:27.384Z,1005.42
2017-04-13T05:58:27.360Z,1005.44
2017-04-13T05:59:27.340Z,1005.4
2017-04-13T06:00:27.322Z,1005.47
2017-04-13T06:01:27.297Z,1005.46
2017-04-13T06:02:27.282Z,1005.5
2017-04-13T06:03:27.262Z,1005.49
2017-04-13T06:04:27.237Z,1005.54
2017-04-13T06:05:27.222Z,1005.52
2017-04-13T06:06:27.198Z,1005.58
2017-04-13T06:07:27.182Z,1005.56
2017-04-13T06:08:27.157Z,1005.57
2017-04-13T06:09:27.142Z,1005.59
2017-04-13T06:10:27.114Z,1005.6
2017-04-13T06:11:27.095Z,1005.65
2017-04-13T06:12:27.081Z,1005.6
2017-04-13T06:13:27.054Z,1005.6
2017-04-13T06:14:27.044Z,1005.59
2017-04-13T06:15:27.013Z,1005.58
2017-04-13T06:16:26.995Z,1005.63
2017-04-13T06:17:27.046Z,1005.61
2017-04-13T06:18:26.957Z,1005.65
2017-04-13T06:19:26.935Z,1005.66
2017-04-13T06:20:26.924Z,1005.65
2017-04-13T06:21:26.899Z,1005.6
2017-04-13T06:22:26.882Z,1005.68
2017-04-13T06:23:26.862Z,1005.63
2017-04-13T06:24:26.835Z,1005.65
2017-04-13T06:25:26.813Z,1005.66
2017-04-13T06:26:26.796Z,1005.71
2017-04-13T06:27:26.777Z,1005.65
2017-04-13T06:28:26.763Z,1005.65
2017-04-13T06:29:26.731Z,1005.69
2017-04-13T06:30:26.719Z,1005.7
2017-04-13T06:31:26.693Z,1005.76
2017-04-13T06:32:26.674Z,1005.69
2017-04-13T06:33:26.663Z,1005.72
2017-04-13T06:34:26.634Z,1005.75
2017-04-13T06:35:26.614Z,1005.78
2017-04-13T06:36:26.597Z,1005.79
2017-04-13T06:37:26.585Z,1005.83
2017-04-13T06:38:26.555Z,1005.85
2017-04-13T06:39:26.535Z,1005.87
2017-04-13T06:40:26.521Z,1005.94
2017-04-13T06:41:26.505Z,1005.9
2017-04-13T06:42:26.479Z,1005.9
2017-04-13T06:43:26.456Z,1006.01
2017-04-13T06:44:26.441Z,1005.94
2017-04-13T06:45:26.421Z,1005.95
2017-04-13T06:46:26.395Z,1006
2017-04-13T06:47:26.374Z,1005.99
2017-04-13T06:48:26.355Z,1005.98
2017-04-13T06:49:26.344Z,1005.96
2017-04-13T06:50:26.321Z,1005.97
2017-04-13T06:51:26.297Z,1005.98
2017-04-13T06:52:26.277Z,1005.97
2017-04-13T06:53:26.262Z,1005.98
2017-04-13T06:54:26.241Z,1006.03
2017-04-13T06:55:26.220Z,1006.08
2017-04-13T06:56:26.203Z,1006.03
2017-04-13T06:57:26.178Z,1006.05
2017-04-13T06:58:26.205Z,1006.09
2017-04-13T06:59:26.139Z,1006.03
2017-04-13T07:00:26.122Z,1006.02
2017-04-13T07:01:26.101Z,1006.01
2017-04-13T07:02:26.081Z,1006.03
2017-04-13T07:03:26.061Z,1006.07
2017-04-13T07:04:26.052Z,1006.09
2017-04-13T07:05:26.024Z,1006.1
2017-04-13T07:06:26.002Z,1006.09
2017-04-13T07:07:25.980Z,1006.11
2017-04-13T07:08:25.961Z,1006.16
2017-04-13T07:09:25.941Z,1006.12
2017-04-13T07:10:25.923Z,1006.18
2017-04-13T07:11:25.902Z,1006.16
2017-04-13T07:12:25.886Z,1006.17
2017-04-13T07:13:25.873Z,1006.14
2017-04-13T07:14:25.848Z,1006.16
2017-04-13T07:15:25.824Z,1006.11
2017-04-13T07:16:25.808Z,1006.12
2017-04-13T07:17:25.785Z,1006.09
2017-04-13T07:18:25.769Z,1006.1
2017-04-13T07:19:25.753Z,1006.14
2017-04-13T07:20:25.729Z,1006.08
2017-04-13T07:21:25.707Z,1006.08
2017-04-13T07:22:25.691Z,1006.09
2017-04-13T07:23:25.671Z,1006.08
2017-04-13T07:24:25.654Z,1006.09
2017-04-13T07:25:25.634Z,1006.13
2017-04-13T07:26:25.611Z,1006.19
2017-04-13T07:27:25.606Z,1006.19
2017-04-13T07:28:25.578Z,1006.2
2017-04-13T07:29:25.555Z,1006.21
2017-04-13T07:30:25.535Z,1006.19
2017-04-13T07:31:25.564Z,1006.26
2017-04-13T07:32:25.493Z,1006.29
2017-04-13T07:33:25.487Z,1006.31
2017-04-13T07:34:25.596Z,1006.3
2017-04-13T07:35:25.439Z,1006.3
2017-04-13T07:36:25.420Z,1006.29
2017-04-13T07:37:25.399Z,1006.35
2017-04-13T07:38:25.382Z,1006.38
2017-04-13T07:39:25.357Z,1006.45
2017-04-13T07:40:25.395Z,1006.42
2017-04-13T07:41:25.323Z,1006.45
2017-04-13T07:42:25.300Z,1006.48
2017-04-13T07:43:25.280Z,1006.48
2017-04-13T07:44:25.261Z,1006.46
2017-04-13T07:45:25.243Z,1006.54
2017-04-13T07:46:25.225Z,1006.56
2017-04-13T07:47:25.203Z,1006.52
2017-04-13T07:48:25.181Z,1006.57
2017-04-13T07:49:25.171Z,1006.6
2017-04-13T07:50:25.145Z,1006.56
2017-04-13T07:51:25.129Z,1006.61
2017-04-13T07:52:25.107Z,1006.6
2017-04-13T07:53:25.087Z,1006.56
2017-04-13T07:54:25.068Z,1006.62
2017-04-13T07:55:25.052Z,1006.59
2017-04-13T07:56:25.028Z,1006.63
2017-04-13T07:57:25.009Z,1006.63
2017-04-13T07:58:24.993Z,1006.62
2017-04-13T07:59:24.972Z,1006.65
2017-04-13T08:00:24.947Z,1006.68
2017-04-13T08:01:24.942Z,1006.72
2017-04-13T08:02:24.911Z,1006.69
2017-04-13T08:03:24.892Z,1006.69
2017-04-13T08:04:24.873Z,1006.7
2017-04-13T08:05:24.851Z,1006.71
2017-04-13T08:06:24.839Z,1006.78
2017-04-13T08:07:24.819Z,1006.77
2017-04-13T08:08:24.799Z,1006.8
2017-04-13T08:09:24.776Z,1006.78
2017-04-13T08:10:24.763Z,1006.79
2017-04-13T08:11:24.743Z,1006.82
2017-04-13T08:12:24.722Z,1006.86
2017-04-13T08:13:24.701Z,1006.88
2017-04-13T08:14:24.680Z,1006.87
2017-04-13T08:15:24.662Z,1006.86
2017-04-13T08:16:24.644Z,1006.87
2017-04-13T08:17:24.625Z,1006.87
2017-04-13T08:18:24.611Z,1006.85
2017-04-13T08:19:24.585Z,1006.86
2017-04-13T08:20:24.566Z,1006.87
2017-04-13T08:21:24.552Z,1006.86
2017-04-13T08:22:24.532Z,1006.87
2017-04-13T08:23:24.511Z,1006.85
2017-04-13T08:24:24.492Z,1006.85
2017-04-13T08:25:24.471Z,1006.91
2017-04-13T08:26:24.452Z,1006.94
2017-04-13T08:27:24.441Z,1006.9
2017-04-13T08:28:24.411Z,1006.87
2017-04-13T08:29:24.389Z,1006.92
2017-04-13T08:30:24.374Z,1006.95
2017-04-13T08:31:24.354Z,1006.96
2017-04-13T08:32:24.331Z,1006.97
2017-04-13T08:33:24.318Z,1007.03
2017-04-13T08:34:24.305Z,1006.97
2017-04-13T08:35:24.280Z,1006.95
2017-04-13T08:36:24.259Z,1007.04
2017-04-13T08:37:24.241Z,1007.01
2017-04-13T08:38:24.223Z,1007.04
2017-04-13T08:39:24.204Z,1007
2017-04-13T08:40:24.185Z,1007.04
2017-04-13T08:41:24.161Z,1007.09
2017-04-13T08:42:24.147Z,1007.06
2017-04-13T08:43:24.136Z,1007.05
2017-04-13T08:44:24.111Z,1007.11
2017-04-13T08:45:24.095Z,1007.09
2017-04-13T08:46:24.072Z,1007.1
2017-04-13T08:47:24.056Z,1007.06
2017-04-13T08:48:24.035Z,1007.12
2017-04-13T08:49:24.019Z,1007.14
2017-04-13T08:50:24.003Z,1007.12
2017-04-13T08:51:23.983Z,1007.14
2017-04-13T08:52:23.962Z,1007.2
2017-04-13T08:53:23.944Z,1007.14
2017-04-13T08:54:23.924Z,1007.14
2017-04-13T08:55:23.913Z,1007.23
2017-04-13T08:56:23.891Z,1007.16
2017-04-13T08:57:23.868Z,1007.2
2017-04-13T08:58:23.854Z,1007.15
2017-04-13T08:59:23.832Z,1007.2
2017-04-13T09:00:23.818Z,1007.14
2017-04-13T09:01:23.797Z,1007.18
2017-04-13T09:02:23.782Z,1007.15
2017-04-13T09:03:23.762Z,1007.21
2017-04-13T09:04:23.740Z,1007.2
2017-04-13T09:05:23.725Z,1007.26
2017-04-13T09:06:23.704Z,1007.24
2017-04-13T09:07:23.695Z,1007.18
2017-04-13T09:08:23.667Z,1007.22
2017-04-13T09:09:23.652Z,1007.21
2017-04-13T09:10:23.630Z,1007.26
2017-04-13T09:11:23.611Z,1007.34
2017-04-13T09:12:23.594Z,1007.27
2017-04-13T09:13:23.576Z,1007.34
2017-04-13T09:14:23.561Z,1007.37
2017-04-13T09:15:23.545Z,1007.35
2017-04-13T09:16:23.522Z,1007.32
2017-04-13T09:17:23.511Z,1007.31
2017-04-13T09:18:23.489Z,1007.24
2017-04-13T09:19:23.468Z,1007.28
2017-04-13T09:20:23.455Z,1007.32
2017-04-13T09:21:23.442Z,1007.31
2017-04-13T09:22:23.416Z,1007.32
2017-04-13T09:23:23.397Z,1007.31
2017-04-13T09:24:23.380Z,1007.41
2017-04-13T09:25:23.361Z,1007.41
2017-04-13T09:26:23.342Z,1007.36
2017-04-13T09:27:23.330Z,1007.36
2017-04-13T09:28:23.311Z,1007.33
2017-04-13T09:29:23.292Z,1007.36
2017-04-13T09:30:23.273Z,1007.37
2017-04-13T09:31:23.256Z,1007.38
2017-04-13T09:32:23.241Z,1007.4
2017-04-13T09:33:23.222Z,1007.37
2017-04-13T09:34:23.202Z,1007.38
2017-04-13T09:35:23.182Z,1007.4
2017-04-13T09:36:23.161Z,1007.38
2017-04-13T09:37:23.153Z,1007.37
2017-04-13T09:38:23.133Z,1007.4
2017-04-13T09:39:23.108Z,1007.41
2017-04-13T09:40:23.091Z,1007.4
2017-04-13T09:41:23.069Z,1007.36
2017-04-13T09:42:23.064Z,1007.39
2017-04-13T09:43:23.037Z,1007.29
2017-04-13T09:44:23.024Z,1007.31
2017-04-13T09:45:23.004Z,1007.35
2017-04-13T09:46:22.991Z,1007.33
2017-04-13T09:47:22.973Z,1007.29
2017-04-13T09:48:22.945Z,1007.33
2017-04-13T09:49:22.940Z,1007.31
2017-04-13T09:50:22.909Z,1007.33
2017-04-13T09:51:22.894Z,1007.35
2017-04-13T09:52:22.880Z,1007.3
2017-04-13T09:53:22.859Z,1007.24
2017-04-13T09:54:22.881Z,1007.21
2017-04-13T09:55:22.818Z,1007.23
2017-04-13T09:56:22.809Z,1007.23
2017-04-13T09:57:22.782Z,1007.24
2017-04-13T09:58:22.761Z,1007.26
2017-04-13T09:59:22.745Z,1007.29
2017-04-13T10:00:22.727Z,1007.32
2017-04-13T10:01:22.714Z,1007.28
2017-04-13T10:02:22.695Z,1007.31
2017-04-13T10:03:22.673Z,1007.31
2017-04-13T10:04:22.660Z,1007.29
2017-04-13T10:05:22.635Z,1007.31
2017-04-13T10:06:22.632Z,1007.28
2017-04-13T10:07:22.599Z,1007.31
2017-04-13T10:08:22.582Z,1007.36
2017-04-13T10:09:22.558Z,1007.4
2017-04-13T10:10:22.542Z,1007.34
2017-04-13T10:11:22.525Z,1007.34
2017-04-13T10:12:22.514Z,1007.36
2017-04-13T10:13:22.492Z,1007.35
2017-04-13T10:14:22.482Z,1007.26
2017-04-13T10:15:22.456Z,1007.36
2017-04-13T10:16:22.443Z,1007.33
2017-04-13T10:17:22.422Z,1007.35
2017-04-13T10:18:22.401Z,1007.37
2017-04-13T10:19:22.379Z,1007.34
2017-04-13T10:20:22.361Z,1007.38
2017-04-13T10:21:22.340Z,1007.38
2017-04-13T10:22:22.328Z,1007.36
2017-04-13T10:23:22.311Z,1007.4
2017-04-13T10:24:22.289Z,1007.33
2017-04-13T10:25:22.272Z,1007.48
2017-04-13T10:26:22.270Z,1007.36
2017-04-13T10:27:22.240Z,1007.41
2017-04-13T10:28:22.222Z,1007.37
2017-04-13T10:29:22.200Z,1007.37
2017-04-13T10:30:22.182Z,1007.35
2017-04-13T10:31:22.160Z,1007.36
2017-04-13T10:32:22.142Z,1007.4
2017-04-13T10:33:22.128Z,1007.48
2017-04-13T10:34:22.105Z,1007.54
2017-04-13T10:35:22.089Z,1007.52
2017-04-13T10:36:22.067Z,1007.59
2017-04-13T10:37:22.049Z,1007.48
2017-04-13T10:38:22.039Z,1007.56
2017-04-13T10:39:22.012Z,1007.61
2017-04-13T10:40:21.997Z,1007.51
2017-04-13T10:41:21.981Z,1007.57
2017-04-13T10:42:21.963Z,1007.56
2017-04-13T10:43:21.949Z,1007.6
2017-04-13T10:44:21.928Z,1007.59
2017-04-13T10:45:21.907Z,1007.55
2017-04-13T10:46:21.884Z,1007.54
2017-04-13T10:47:21.874Z,1007.57
2017-04-13T10:48:21.845Z,1007.59
2017-04-13T10:49:21.835Z,1007.6
2017-04-13T10:50:21.818Z,1007.6
2017-04-13T10:51:21.796Z,1007.64
2017-04-13T10:52:21.874Z,1007.67
2017-04-13T10:53:21.766Z,1007.67
2017-04-13T10:54:21.747Z,1007.72
2017-04-13T10:55:21.723Z,1007.68
2017-04-13T10:56:21.708Z,1007.85
2017-04-13T10:57:21.690Z,1007.8
2017-04-13T10:58:21.664Z,1007.71
2017-04-13T10:59:21.641Z,1007.71
2017-04-13T11:00:21.639Z,1007.75
2017-04-13T11:01:21.605Z,1007.7
2017-04-13T11:02:21.695Z,1007.69
2017-04-13T11:03:21.574Z,1007.71
2017-04-13T11:04:21.548Z,1007.72
2017-04-13T11:05:21.532Z,1007.74
2017-04-13T11:06:21.510Z,1007.75
2017-04-13T11:07:21.590Z,1007.76
2017-04-13T11:08:21.470Z,1007.81
2017-04-13T11:09:21.466Z,1007.82
2017-04-13T11:10:21.436Z,1007.8
2017-04-13T11:11:21.415Z,1007.88
2017-04-13T11:12:21.404Z,1007.97
2017-04-13T11:13:21.383Z,1008.04
2017-04-13T11:14:21.360Z,1007.97
2017-04-13T11:15:21.353Z,1007.95
2017-04-13T11:16:21.326Z,1008.02
2017-04-13T11:17:21.303Z,1008
2017-04-13T11:18:21.285Z,1008.05
2017-04-13T11:19:21.262Z,1008.07
2017-04-13T11:20:21.245Z,1008.09
2017-04-13T11:21:21.231Z,1008.1
2017-04-13T11:22:21.312Z,1008.19
2017-04-13T11:23:21.195Z,1008.1
2017-04-13T11:24:21.173Z,1008.09
2017-04-13T11:25:21.152Z,1008.11
2017-04-13T11:26:21.143Z,1008.05
2017-04-13T11:27:21.112Z,1008.07
2017-04-13T11:28:21.094Z,1008.05
2017-04-13T11:29:21.073Z,1008.04
2017-04-13T11:30:21.052Z,1008.04
2017-04-13T11:31:21.041Z,1007.95
2017-04-13T11:32:21.019Z,1007.96
2017-04-13T11:33:21.022Z,1007.96
2017-04-13T11:34:20.977Z,1007.97
2017-04-13T11:35:20.963Z,1007.99
2017-04-13T11:36:20.939Z,1008.01
2017-04-13T11:37:20.925Z,1008
2017-04-13T11:38:20.903Z,1008.03
2017-04-13T11:39:20.883Z,1008.04
2017-04-13T11:40:20.862Z,1008.01
2017-04-13T11:41:20.843Z,1008.03
2017-04-13T11:42:20.926Z,1008.06
2017-04-13T11:43:20.810Z,1008.06
2017-04-13T11:44:20.784Z,1008.07
2017-04-13T11:45:20.769Z,1008.04
2017-04-13T11:46:20.747Z,1008
2017-04-13T11:47:20.733Z,1007.99
2017-04-13T11:48:20.710Z,1007.97
2017-04-13T11:49:20.693Z,1007.97
2017-04-13T11:50:20.671Z,1007.95
2017-04-13T11:51:20.653Z,1008
2017-04-13T11:52:20.635Z,1008
2017-04-13T11:53:20.616Z,1008.07
2017-04-13T11:54:20.598Z,1008.05
2017-04-13T11:55:20.579Z,1007.98
2017-04-13T11:56:20.560Z,1008.01
2017-04-13T11:57:20.698Z,1008.01
2017-04-13T11:58:20.520Z,1007.97
2017-04-13T11:59:20.502Z,1007.94
2017-04-13T12:00:20.481Z,1007.99
2017-04-13T12:01:20.466Z,1007.95
2017-04-13T12:02:20.449Z,1007.96
2017-04-13T12:03:20.426Z,1007.95
2017-04-13T12:04:20.412Z,1007.94
2017-04-13T12:05:20.389Z,1007.94
2017-04-13T12:06:20.374Z,1007.94
2017-04-13T12:07:20.350Z,1007.9
2017-04-13T12:08:20.335Z,1007.91
2017-04-13T12:09:20.314Z,1007.9